createdAt,value
2023-03-11T00:00:33.203Z,1.30
2023-03-11T00:03:02.702Z,2.10
2023-03-11T00:05:36.221Z,1.50
2023-03-11T00:08:05.204Z,2.58
2023-03-11T00:10:35.581Z,0.60
2023-03-11T00:13:04.182Z,0.52
2023-03-11T00:15:32.438Z,2.15
2023-03-11T00:18:00.819Z,0.60
2023-03-11T00:20:30.072Z,1.30
2023-03-11T00:22:58.104Z,0.70
2023-03-11T00:25:27.990Z,1.02
2023-03-11T00:27:55.879Z,1.50
2023-03-11T00:32:55.535Z,0.88
2023-03-11T00:35:28.948Z,1.00
2023-03-11T00:37:59.070Z,1.95
2023-03-11T00:40:30.103Z,1.65
2023-03-11T00:42:58.336Z,0.60
2023-03-11T00:45:26.681Z,1.45
2023-03-11T00:47:55.381Z,0.80
2023-03-11T00:50:29.328Z,1.05
2023-03-11T00:52:57.153Z,0.80
2023-03-11T00:55:28.573Z,1.25
2023-03-11T00:58:00.075Z,0.88
2023-03-11T01:00:32.277Z,0.50
2023-03-11T01:03:00.883Z,0.68
2023-03-11T01:05:31.312Z,1.48
2023-03-11T01:07:59.518Z,0.68
2023-03-11T01:10:29.228Z,0.90
2023-03-11T01:12:56.725Z,0.60
2023-03-11T01:15:33.418Z,0.98
2023-03-11T01:18:01.561Z,1.67
2023-03-11T01:20:29.531Z,2.05
2023-03-11T01:22:57.279Z,0.68
2023-03-11T01:25:25.397Z,1.00
2023-03-11T01:27:52.821Z,0.60
2023-03-11T01:30:24.851Z,1.15
2023-03-11T01:32:53.952Z,1.00
2023-03-11T01:35:24.003Z,0.90
2023-03-11T01:37:52.985Z,1.52
2023-03-11T01:40:27.173Z,2.40
2023-03-11T01:42:54.689Z,1.17
2023-03-11T01:45:43.234Z,1.27
2023-03-11T01:48:12.961Z,1.60
2023-03-11T01:50:46.411Z,1.75
2023-03-11T01:53:16.896Z,1.00
2023-03-11T01:55:46.230Z,1.42
2023-03-11T01:58:18.438Z,1.17
2023-03-11T02:00:47.357Z,1.35
2023-03-11T02:03:24.362Z,1.67
2023-03-11T02:05:54.178Z,2.17
2023-03-11T02:08:22.048Z,3.20
2023-03-11T02:10:52.342Z,1.27
2023-03-11T02:13:20.530Z,1.80
2023-03-11T02:15:48.241Z,1.83
2023-03-11T02:21:10.449Z,1.58
2023-03-11T02:23:57.908Z,2.15
2023-03-11T02:26:41.229Z,1.23
2023-03-11T02:29:11.402Z,2.20
2023-03-11T02:31:42.928Z,2.15
2023-03-11T02:34:21.419Z,1.73
2023-03-11T02:36:49.701Z,2.85
2023-03-11T02:39:28.989Z,2.90
2023-03-11T02:41:57.361Z,3.63
2023-03-11T02:44:25.417Z,1.23
2023-03-11T02:46:53.661Z,2.53
2023-03-11T02:49:23.165Z,2.45
2023-03-11T02:51:50.647Z,2.25
2023-03-11T02:54:18.334Z,3.47
2023-03-11T02:56:46.415Z,2.53
2023-03-11T02:59:13.832Z,3.28
2023-03-11T03:01:41.626Z,1.75
2023-03-11T03:04:11.496Z,1.20
2023-03-11T03:06:39.021Z,2.35
2023-03-11T03:09:06.558Z,3.47
2023-03-11T03:11:33.968Z,1.27
2023-03-11T03:14:01.498Z,1.83
2023-03-11T03:16:29.039Z,1.55
2023-03-11T03:18:56.543Z,2.88
2023-03-11T03:21:24.009Z,1.70
2023-03-11T03:23:51.827Z,1.35
2023-03-11T03:26:19.902Z,1.90
2023-03-11T03:28:49.636Z,1.45
2023-03-11T03:31:17.276Z,2.22
2023-03-11T03:33:45.542Z,2.95
2023-03-11T03:36:15.047Z,2.03
2023-03-11T03:38:46.367Z,1.60
2023-03-11T03:41:15.843Z,3.60
2023-03-11T03:43:43.630Z,1.88
2023-03-11T03:46:11.424Z,7.07
2023-03-11T03:48:43.081Z,2.55
2023-03-11T03:51:13.777Z,4.32
2023-03-11T03:53:47.069Z,3.08
2023-03-11T03:56:17.713Z,2.58
2023-03-11T03:58:45.556Z,5.93
2023-03-11T04:01:13.188Z,4.45
2023-03-11T04:03:41.954Z,4.30
2023-03-11T04:06:19.351Z,3.83
2023-03-11T04:08:52.209Z,3.58
2023-03-11T04:11:22.453Z,6.22
2023-03-11T04:13:50.388Z,3.60
2023-03-11T04:16:21.575Z,3.40
2023-03-11T04:18:49.743Z,7.60
2023-03-11T04:21:18.226Z,5.13
2023-03-11T04:23:46.917Z,2.75
2023-03-11T04:26:16.834Z,6.15
2023-03-11T04:28:44.352Z,5.43
2023-03-11T04:31:12.782Z,1.98
2023-03-11T04:33:40.422Z,5.38
2023-03-11T04:36:10.395Z,6.97
2023-03-11T04:38:39.455Z,6.43
2023-03-11T04:41:13.264Z,7.22
2023-03-11T04:43:44.386Z,7.60
2023-03-11T04:46:12.044Z,5.05
2023-03-11T04:48:41.665Z,6.68
2023-03-11T04:51:09.744Z,3.83
2023-03-11T04:53:37.101Z,10.55
2023-03-11T04:56:05.464Z,8.45
2023-03-11T04:58:34.264Z,2.97
2023-03-11T05:01:01.975Z,4.38
2023-03-11T05:03:29.904Z,5.28
2023-03-11T05:08:25.613Z,4.38
2023-03-11T05:10:53.889Z,5.68
2023-03-11T05:13:22.745Z,4.30
2023-03-11T05:15:52.471Z,6.03
2023-03-11T05:18:21.063Z,6.00
2023-03-11T05:20:49.611Z,6.88
2023-03-11T05:23:20.002Z,5.53
2023-03-11T05:25:47.542Z,6.25
2023-03-11T05:28:15.168Z,8.00
2023-03-11T05:30:50.289Z,4.35
2023-03-11T05:33:21.395Z,6.40
2023-03-11T05:35:52.089Z,6.68
2023-03-11T05:38:20.923Z,6.25
2023-03-11T05:43:16.168Z,4.75
2023-03-11T05:45:47.893Z,8.07
2023-03-11T05:48:15.430Z,7.32
2023-03-11T05:50:43.443Z,5.65
2023-03-11T05:53:11.314Z,6.72
2023-03-11T05:55:38.698Z,5.85
2023-03-11T05:58:06.811Z,4.45
2023-03-11T06:00:34.901Z,6.05
2023-03-11T06:03:04.244Z,7.10
2023-03-11T06:05:31.661Z,8.68
2023-03-11T06:10:26.816Z,10.77
2023-03-11T06:12:54.692Z,6.03
2023-03-11T06:15:36.428Z,11.25
2023-03-11T06:18:05.182Z,11.50
2023-03-11T06:20:33.590Z,8.07
2023-03-11T06:23:01.273Z,9.20
2023-03-11T06:25:28.761Z,9.25
2023-03-11T06:27:56.828Z,4.70
2023-03-11T06:30:25.735Z,11.63
2023-03-11T06:33:00.551Z,5.10
2023-03-11T06:35:28.511Z,6.30
2023-03-11T06:37:56.332Z,9.40
2023-03-11T06:40:24.373Z,7.95
2023-03-11T06:42:52.540Z,7.03
2023-03-11T06:45:22.773Z,9.27
2023-03-11T06:47:50.973Z,9.20
2023-03-11T06:52:46.047Z,6.95
2023-03-11T06:55:13.398Z,9.77
2023-03-11T06:57:41.577Z,7.07
2023-03-11T07:00:14.617Z,7.78
2023-03-11T07:02:47.175Z,8.30
2023-03-11T07:05:18.040Z,7.28
2023-03-11T07:07:46.344Z,7.10
2023-03-11T07:10:14.478Z,6.68
2023-03-11T07:12:42.524Z,6.70
2023-03-11T07:15:10.762Z,11.27
2023-03-11T07:17:38.448Z,7.50
2023-03-11T07:20:07.052Z,6.93
2023-03-11T07:22:35.300Z,7.03
2023-03-11T07:25:02.904Z,10.38
2023-03-11T07:27:30.494Z,12.00
2023-03-11T07:29:58.190Z,6.63
2023-03-11T07:32:25.716Z,10.40
2023-03-11T07:34:53.340Z,14.80
2023-03-11T07:39:48.516Z,5.63
2023-03-11T07:44:43.377Z,7.95
2023-03-11T07:49:39.607Z,12.23
2023-03-11T07:54:38.232Z,12.20
2023-03-11T07:57:06.137Z,8.73
2023-03-11T07:59:33.940Z,10.73
2023-03-11T08:02:03.566Z,3.40
2023-03-11T08:04:30.964Z,10.00
2023-03-11T08:06:58.631Z,10.20
2023-03-11T08:09:26.563Z,13.45
2023-03-11T08:11:54.418Z,11.38
2023-03-11T08:14:22.175Z,11.82
2023-03-11T08:16:49.746Z,7.35
2023-03-11T08:19:17.467Z,8.43
2023-03-11T08:26:42.029Z,13.38
2023-03-11T08:29:09.427Z,9.82
2023-03-11T08:31:37.000Z,10.98
2023-03-11T08:34:07.696Z,12.80
2023-03-11T08:36:35.838Z,7.80
2023-03-11T08:41:31.326Z,10.95
2023-03-11T08:43:58.843Z,13.48
2023-03-11T08:46:32.168Z,11.55
2023-03-11T08:49:01.349Z,14.70
2023-03-11T08:51:31.305Z,12.73
2023-03-11T08:53:59.550Z,13.15
2023-03-11T08:56:27.199Z,9.57
2023-03-11T09:01:23.152Z,8.52
2023-03-11T09:03:56.310Z,7.18
2023-03-11T09:06:24.612Z,9.02
2023-03-11T09:08:56.149Z,17.65
2023-03-11T09:11:24.023Z,9.93
2023-03-11T09:16:23.670Z,11.52
2023-03-11T09:18:51.105Z,11.65
2023-03-11T09:21:19.046Z,11.48
2023-03-11T09:23:47.176Z,12.07
2023-03-11T09:26:15.339Z,12.32
2023-03-11T09:28:43.265Z,9.35
2023-03-11T09:33:39.629Z,10.20
2023-03-11T09:36:08.759Z,16.63
2023-03-11T09:38:36.320Z,9.00
2023-03-11T09:41:26.385Z,12.88
2023-03-11T09:44:09.213Z,8.07
2023-03-11T09:47:14.457Z,11.40
2023-03-11T09:50:06.001Z,9.48
2023-03-11T09:53:21.643Z,9.95
2023-03-11T09:55:57.915Z,14.05
2023-03-11T09:58:43.216Z,18.58
2023-03-11T10:01:34.955Z,9.45
2023-03-11T10:04:28.939Z,13.13
2023-03-11T10:06:57.321Z,11.98
2023-03-11T10:09:39.403Z,19.52
2023-03-11T10:12:18.728Z,9.82
2023-03-11T10:15:25.015Z,9.43
2023-03-11T10:18:07.438Z,11.43
2023-03-11T10:21:16.264Z,14.25
2023-03-11T10:24:02.227Z,11.43
2023-03-11T10:26:37.790Z,13.45
2023-03-11T10:29:31.218Z,9.77
2023-03-11T10:32:24.516Z,9.10
2023-03-11T10:34:58.439Z,11.57
2023-03-11T10:37:49.860Z,13.20
2023-03-11T10:40:33.213Z,14.88
2023-03-11T10:43:05.496Z,17.08
2023-03-11T10:45:44.810Z,6.20
2023-03-11T10:48:17.009Z,8.75
2023-03-11T10:51:26.955Z,10.13
2023-03-11T10:54:00.623Z,12.18
2023-03-11T10:56:30.217Z,9.13
2023-03-11T10:58:58.555Z,8.93
2023-03-11T11:01:27.164Z,9.70
2023-03-11T11:03:57.313Z,10.93
2023-03-11T11:06:30.795Z,8.95
2023-03-11T11:09:22.115Z,7.07
2023-03-11T11:12:16.059Z,8.25
2023-03-11T11:14:51.306Z,6.45
2023-03-11T11:17:24.675Z,12.68
2023-03-11T11:19:53.416Z,10.38
2023-03-11T11:22:23.641Z,10.02
2023-03-11T11:24:54.422Z,13.05
2023-03-11T11:27:24.875Z,6.50
2023-03-11T11:30:08.964Z,7.80
2023-03-11T11:32:37.970Z,9.65
2023-03-11T11:35:15.615Z,13.75
2023-03-11T11:37:58.040Z,7.32
2023-03-11T11:40:31.149Z,6.75
2023-03-11T11:43:04.939Z,6.57
2023-03-11T11:45:45.587Z,7.75
2023-03-11T11:48:47.663Z,7.38
2023-03-11T11:51:27.679Z,5.22
2023-03-11T11:54:18.487Z,7.13
2023-03-11T11:56:46.842Z,7.82
2023-03-11T11:59:19.374Z,6.68
2023-03-11T12:01:57.334Z,8.32
2023-03-11T12:07:23.485Z,10.20
2023-03-11T12:09:55.571Z,6.93
2023-03-11T12:12:44.543Z,6.88
2023-03-11T12:15:33.967Z,5.57
2023-03-11T12:18:12.148Z,4.90
2023-03-11T12:20:54.982Z,4.63
2023-03-11T12:23:33.793Z,8.45
2023-03-11T12:26:07.830Z,6.45
2023-03-11T12:28:46.020Z,6.85
2023-03-11T12:31:14.507Z,10.60
2023-03-11T12:34:13.241Z,7.47
2023-03-11T12:36:47.055Z,4.32
2023-03-11T12:39:25.227Z,8.32
2023-03-11T12:42:11.085Z,6.22
2023-03-11T12:44:39.859Z,11.40
2023-03-11T12:47:13.275Z,9.43
2023-03-11T12:49:46.807Z,8.25
2023-03-11T12:52:14.141Z,8.95
2023-03-11T12:55:01.401Z,5.53
2023-03-11T12:57:32.976Z,5.40
2023-03-11T13:00:38.270Z,9.00
2023-03-11T13:03:09.680Z,19.80
2023-03-11T13:06:04.651Z,5.72
2023-03-11T13:08:45.853Z,8.05
2023-03-11T13:11:33.650Z,4.93
2023-03-11T13:14:35.557Z,4.30
2023-03-11T13:17:25.841Z,4.32
2023-03-11T13:19:57.771Z,7.03
2023-03-11T13:23:06.340Z,12.88
2023-03-11T13:25:39.442Z,7.20
2023-03-11T13:28:53.076Z,9.68
2023-03-11T13:31:39.542Z,5.93
2023-03-11T13:34:18.016Z,6.90
2023-03-11T13:37:09.715Z,10.38
2023-03-11T13:39:40.860Z,6.15
2023-03-11T13:42:27.074Z,7.30
2023-03-11T13:44:54.892Z,8.77
2023-03-11T13:49:59.778Z,8.18
2023-03-11T13:52:45.725Z,6.40
2023-03-11T13:55:23.410Z,3.55
2023-03-11T13:57:58.093Z,12.63
2023-03-11T14:00:29.823Z,4.13
2023-03-11T14:03:12.937Z,5.55
2023-03-11T14:05:46.439Z,7.18
2023-03-11T14:08:21.189Z,5.45
2023-03-11T14:10:57.323Z,8.43
2023-03-11T14:13:27.416Z,6.22
2023-03-11T14:16:24.944Z,5.65
2023-03-11T14:19:08.957Z,7.95
2023-03-11T14:21:36.647Z,4.88
2023-03-11T14:24:04.350Z,7.30
2023-03-11T14:26:35.338Z,5.03
2023-03-11T14:29:10.779Z,4.80
2023-03-11T14:31:40.646Z,5.05
2023-03-11T14:34:11.076Z,7.97
2023-03-11T14:36:45.857Z,5.32
2023-03-11T14:39:38.791Z,4.15
2023-03-11T14:42:45.087Z,3.83
2023-03-11T14:45:18.166Z,7.95
2023-03-11T14:48:02.437Z,6.63
2023-03-11T14:50:33.801Z,8.45
2023-03-11T14:53:14.093Z,10.25
2023-03-11T14:55:51.271Z,8.13
2023-03-11T14:58:37.288Z,4.55
2023-03-11T15:01:19.413Z,4.05
2023-03-11T15:03:59.190Z,6.97
2023-03-11T15:06:30.102Z,4.78
2023-03-11T15:09:00.102Z,6.10
2023-03-11T15:11:28.591Z,5.78
2023-03-11T15:14:28.364Z,7.70
2023-03-11T15:17:08.421Z,6.55
2023-03-11T15:19:36.057Z,3.90
2023-03-11T15:22:26.164Z,5.90
2023-03-11T15:24:59.535Z,7.03
2023-03-11T15:27:33.631Z,4.22
2023-03-11T15:30:04.959Z,5.28
2023-03-11T15:32:32.537Z,5.43
2023-03-11T15:35:08.188Z,7.70
2023-03-11T15:37:35.921Z,6.13
2023-03-11T15:40:35.275Z,4.85
2023-03-11T15:43:15.560Z,6.30
2023-03-11T15:45:44.227Z,10.77
2023-03-11T15:48:13.425Z,6.10
2023-03-11T15:50:53.897Z,5.43
2023-03-11T15:53:23.928Z,9.20
2023-03-11T15:55:53.735Z,9.18
2023-03-11T15:58:21.591Z,4.50
2023-03-11T16:03:21.104Z,9.68
2023-03-11T16:05:49.568Z,7.43
2023-03-11T16:10:45.222Z,7.40
2023-03-11T16:13:14.209Z,5.05
2023-03-11T16:15:43.215Z,4.72
2023-03-11T16:18:11.123Z,6.43
2023-03-11T16:20:41.822Z,4.22
2023-03-11T16:23:18.125Z,11.23
2023-03-11T16:25:46.712Z,9.27
2023-03-11T16:28:16.670Z,7.15
2023-03-11T16:30:44.122Z,12.52
2023-03-11T16:33:11.687Z,8.95
2023-03-11T16:35:39.761Z,5.93
2023-03-11T16:38:08.759Z,5.30
2023-03-11T16:40:37.581Z,4.88
2023-03-11T16:43:11.292Z,4.75
2023-03-11T16:45:38.724Z,5.20
2023-03-11T16:48:08.615Z,6.78
2023-03-11T16:50:37.684Z,4.40
2023-03-11T16:53:05.181Z,6.68
2023-03-11T16:55:32.739Z,4.65
2023-03-11T16:58:00.207Z,5.97
2023-03-11T17:00:27.801Z,3.33
2023-03-11T17:02:55.280Z,9.15
2023-03-11T17:05:23.061Z,3.35
2023-03-11T17:10:24.596Z,6.15
2023-03-11T17:12:52.501Z,4.03
2023-03-11T17:17:49.981Z,7.68
2023-03-11T17:20:19.322Z,6.47
2023-03-11T17:22:47.928Z,4.97
2023-03-11T17:25:15.271Z,7.55
2023-03-11T17:27:42.760Z,8.38
2023-03-11T17:30:11.899Z,14.38
2023-03-11T17:32:39.418Z,5.88
2023-03-11T17:35:07.868Z,5.25
2023-03-11T17:37:35.477Z,9.05
2023-03-11T17:40:02.963Z,6.15
2023-03-11T17:42:30.460Z,4.00
2023-03-11T17:44:58.096Z,6.30
2023-03-11T17:47:28.842Z,5.40
2023-03-11T17:49:57.370Z,6.78
2023-03-11T17:52:25.186Z,5.38
2023-03-11T17:54:53.580Z,7.30
2023-03-11T17:57:28.762Z,8.88
2023-03-11T18:00:06.038Z,6.22
2023-03-11T18:02:36.768Z,7.13
2023-03-11T18:05:04.472Z,3.97
2023-03-11T18:07:32.521Z,5.07
2023-03-11T18:10:00.229Z,3.28
2023-03-11T18:12:27.759Z,4.68
2023-03-11T18:14:55.682Z,9.82
2023-03-11T18:17:25.695Z,3.35
2023-03-11T18:19:53.838Z,8.10
2023-03-11T18:22:22.561Z,5.25
2023-03-11T18:24:50.011Z,6.38
2023-03-11T18:27:17.503Z,18.52
2023-03-11T18:29:44.867Z,4.13
2023-03-11T18:32:15.281Z,4.65
2023-03-11T18:37:10.477Z,4.20
2023-03-11T18:42:05.982Z,6.88
2023-03-11T18:44:36.921Z,9.63
2023-03-11T18:47:04.915Z,7.18
2023-03-11T18:49:32.729Z,15.82
2023-03-11T18:52:00.175Z,5.65
2023-03-11T18:54:27.974Z,9.98
2023-03-11T18:59:22.421Z,5.50
2023-03-11T19:01:51.156Z,3.67
2023-03-11T19:04:18.893Z,5.55
2023-03-11T19:06:46.934Z,5.65
2023-03-11T19:09:14.716Z,3.95
2023-03-11T19:11:42.163Z,4.72
2023-03-11T19:14:09.468Z,6.75
2023-03-11T19:16:37.362Z,4.18
2023-03-11T19:19:04.730Z,4.68
2023-03-11T19:21:32.123Z,6.75
2023-03-11T19:24:00.456Z,6.50
2023-03-11T19:26:43.795Z,7.65
2023-03-11T19:29:12.724Z,12.07
2023-03-11T19:31:40.113Z,6.05
2023-03-11T19:34:07.530Z,6.63
2023-03-11T19:36:35.253Z,11.45
2023-03-11T19:41:30.777Z,5.75
2023-03-11T19:43:58.490Z,10.48
2023-03-11T19:48:56.785Z,12.85
2023-03-11T19:51:26.650Z,7.03
2023-03-11T19:53:55.933Z,10.70
2023-03-11T19:56:23.332Z,5.25
2023-03-11T19:58:50.683Z,9.27
2023-03-11T20:01:20.124Z,7.13
2023-03-11T20:03:48.020Z,6.05
2023-03-11T20:06:18.766Z,8.02
2023-03-11T20:08:46.652Z,5.65
2023-03-11T20:11:14.071Z,8.15
2023-03-11T20:13:44.123Z,11.40
2023-03-11T20:16:16.598Z,10.35
2023-03-11T20:18:48.130Z,5.15
2023-03-11T20:21:15.408Z,11.15
2023-03-11T20:23:42.762Z,7.55
2023-03-11T20:26:13.574Z,6.75
2023-03-11T20:28:41.275Z,9.60
2023-03-11T20:31:15.150Z,12.88
2023-03-11T20:33:43.132Z,11.35
2023-03-11T20:36:16.790Z,9.65
2023-03-11T20:38:44.363Z,8.02
2023-03-11T20:41:11.772Z,9.82
2023-03-11T20:43:40.195Z,12.38
2023-03-11T20:46:09.643Z,9.38
2023-03-11T20:48:38.526Z,10.40
2023-03-11T20:51:20.394Z,11.00
2023-03-11T20:53:49.034Z,6.13
2023-03-11T20:56:19.781Z,6.85
2023-03-11T20:58:51.041Z,10.25
2023-03-11T21:01:39.097Z,11.77
2023-03-11T21:04:06.725Z,5.43
2023-03-11T21:06:39.542Z,6.40
2023-03-11T21:09:11.916Z,10.05
2023-03-11T21:11:39.433Z,7.30
2023-03-11T21:14:07.382Z,10.23
2023-03-11T21:16:35.403Z,8.98
2023-03-11T21:19:05.670Z,10.07
2023-03-11T21:21:33.222Z,6.00
2023-03-11T21:24:03.626Z,5.97
2023-03-11T21:26:31.700Z,11.73
2023-03-11T21:29:00.022Z,15.32
2023-03-11T21:31:29.497Z,8.52
2023-03-11T21:33:59.515Z,7.28
2023-03-11T21:36:29.436Z,6.80
2023-03-11T21:38:56.999Z,12.27
2023-03-11T21:41:26.737Z,5.60
2023-03-11T21:43:55.829Z,8.80
2023-03-11T21:46:27.079Z,7.80
2023-03-11T21:48:54.514Z,12.60
2023-03-11T21:51:25.747Z,7.78
2023-03-11T21:53:53.399Z,10.63
2023-03-11T21:56:20.769Z,13.95
2023-03-11T21:58:50.007Z,7.30
2023-03-11T22:01:17.392Z,7.43
2023-03-11T22:03:45.260Z,7.50
2023-03-11T22:06:13.099Z,12.98
2023-03-11T22:11:09.722Z,6.28
2023-03-11T22:13:37.214Z,8.70
2023-03-11T22:16:06.423Z,5.63
2023-03-11T22:18:34.090Z,6.15
2023-03-11T22:21:02.010Z,7.97
2023-03-11T22:23:29.594Z,6.63
2023-03-11T22:25:56.988Z,6.55
2023-03-11T22:28:25.007Z,7.88
2023-03-11T22:30:52.370Z,5.72
2023-03-11T22:33:19.763Z,5.50
2023-03-11T22:35:55.367Z,4.93
2023-03-11T22:38:23.384Z,7.18
2023-03-11T22:40:51.036Z,4.25
2023-03-11T22:43:18.395Z,4.47
2023-03-11T22:45:46.332Z,3.35
2023-03-11T22:48:13.886Z,10.52
2023-03-11T22:50:44.486Z,4.90
2023-03-11T22:53:13.580Z,4.82
2023-03-11T22:55:43.083Z,7.22
2023-03-11T22:58:11.154Z,5.68
2023-03-11T23:00:39.513Z,7.57
2023-03-11T23:03:06.932Z,4.72
2023-03-11T23:05:40.845Z,5.43
2023-03-11T23:08:14.406Z,4.88
2023-03-11T23:10:45.897Z,8.98
2023-03-11T23:13:13.702Z,3.10
2023-03-11T23:15:42.522Z,3.80
2023-03-11T23:18:10.998Z,3.75
2023-03-11T23:20:40.070Z,2.65
2023-03-11T23:23:08.459Z,6.03
2023-03-11T23:25:36.172Z,5.30
2023-03-11T23:30:31.866Z,6.60
2023-03-11T23:33:00.166Z,2.63
2023-03-11T23:35:27.641Z,7.10
2023-03-11T23:37:54.983Z,7.82
2023-03-11T23:40:22.239Z,4.90
2023-03-11T23:42:50.786Z,3.15
2023-03-11T23:45:19.164Z,4.70
2023-03-11T23:47:46.610Z,3.60
2023-03-11T23:50:13.959Z,4.10
2023-03-11T23:52:41.749Z,6.78
2023-03-11T23:57:38.015Z,3.40
